sensor_id;sensor_type;location;lat;lon;timestamp;P1;durP1;ratioP1;P2;durP2;ratioP2
57233;SDS011;43090;52.604;13.318;2024-01-06T00:04:35;85.32;;;31.25;;
57233;SDS011;43090;52.604;13.318;2024-01-06T00:09:28;81.97;;;32.40;;
57233;SDS011;43090;52.604;13.318;2024-01-06T00:12:01;82.38;;;33.88;;
57233;SDS011;43090;52.604;13.318;2024-01-06T00:14:50;79.55;;;32.88;;
57233;SDS011;43090;52.604;13.318;2024-01-06T00:17:19;90.28;;;32.95;;
57233;SDS011;43090;52.604;13.318;2024-01-06T00:22:17;85.90;;;32.70;;
57233;SDS011;43090;52.604;13.318;2024-01-06T00:24:44;84.78;;;32.17;;
57233;SDS011;43090;52.604;13.318;2024-01-06T00:29:38;85.78;;;32.72;;
57233;SDS011;43090;52.604;13.318;2024-01-06T00:34:31;81.82;;;30.00;;
57233;SDS011;43090;52.604;13.318;2024-01-06T00:36:58;81.22;;;30.45;;
57233;SDS011;43090;52.604;13.318;2024-01-06T00:41:52;84.30;;;34.65;;
57233;SDS011;43090;52.604;13.318;2024-01-06T00:46:45;87.75;;;30.38;;
57233;SDS011;43090;52.604;13.318;2024-01-06T00:51:38;82.63;;;32.33;;
57233;SDS011;43090;52.604;13.318;2024-01-06T00:57:52;90.53;;;32.85;;
57233;SDS011;43090;52.604;13.318;2024-01-06T01:00:19;85.53;;;32.63;;
57233;SDS011;43090;52.604;13.318;2024-01-06T01:02:58;81.18;;;31.52;;
57233;SDS011;43090;52.604;13.318;2024-01-06T01:07:51;78.82;;;29.98;;
57233;SDS011;43090;52.604;13.318;2024-01-06T01:10:18;78.70;;;30.90;;
57233;SDS011;43090;52.604;13.318;2024-01-06T01:15:12;83.88;;;31.58;;
57233;SDS011;43090;52.604;13.318;2024-01-06T01:17:38;83.40;;;32.63;;
57233;SDS011;43090;52.604;13.318;2024-01-06T01:22:32;57.22;;;20.73;;
57233;SDS011;43090;52.604;13.318;2024-01-06T01:27:26;79.28;;;30.25;;
57233;SDS011;43090;52.604;13.318;2024-01-06T01:32:21;77.15;;;28.48;;
57233;SDS011;43090;52.604;13.318;2024-01-06T01:34:53;78.60;;;32.00;;
57233;SDS011;43090;52.604;13.318;2024-01-06T01:37:28;81.35;;;31.95;;
57233;SDS011;43090;52.604;13.318;2024-01-06T01:39:55;83.40;;;29.83;;
57233;SDS011;43090;52.604;13.318;2024-01-06T01:44:49;73.97;;;28.92;;
57233;SDS011;43090;52.604;13.318;2024-01-06T01:47:15;84.30;;;30.58;;
57233;SDS011;43090;52.604;13.318;2024-01-06T01:49:48;68.55;;;28.02;;
57233;SDS011;43090;52.604;13.318;2024-01-06T01:52:15;71.63;;;27.33;;
57233;SDS011;43090;52.604;13.318;2024-01-06T01:54:48;76.20;;;29.73;;
57233;SDS011;43090;52.604;13.318;2024-01-06T02:07:17;75.30;;;30.63;;
57233;SDS011;43090;52.604;13.318;2024-01-06T02:12:10;74.70;;;27.98;;
57233;SDS011;43090;52.604;13.318;2024-01-06T02:14:46;76.03;;;28.65;;
57233;SDS011;43090;52.604;13.318;2024-01-06T02:17:23;79.82;;;29.88;;
57233;SDS011;43090;52.604;13.318;2024-01-06T02:19:52;78.60;;;29.98;;
57233;SDS011;43090;52.604;13.318;2024-01-06T02:22:19;73.22;;;28.73;;
57233;SDS011;43090;52.604;13.318;2024-01-06T02:27:12;72.88;;;28.67;;
57233;SDS011;43090;52.604;13.318;2024-01-06T02:29:40;70.68;;;27.73;;
57233;SDS011;43090;52.604;13.318;2024-01-06T02:46:19;85.25;;;30.90;;
57233;SDS011;43090;52.604;13.318;2024-01-06T02:49:03;87.25;;;31.00;;
57233;SDS011;43090;52.604;13.318;2024-01-06T02:54:41;93.63;;;34.42;;
57233;SDS011;43090;52.604;13.318;2024-01-06T02:57:08;88.70;;;32.80;;
57233;SDS011;43090;52.604;13.318;2024-01-06T03:03:35;78.13;;;29.77;;
57233;SDS011;43090;52.604;13.318;2024-01-06T03:06:09;79.05;;;30.42;;
57233;SDS011;43090;52.604;13.318;2024-01-06T03:08:36;80.47;;;32.08;;
57233;SDS011;43090;52.604;13.318;2024-01-06T03:15:51;86.63;;;31.15;;
57233;SDS011;43090;52.604;13.318;2024-01-06T03:18:17;78.60;;;29.67;;
57233;SDS011;43090;52.604;13.318;2024-01-06T03:20:44;85.57;;;29.92;;
57233;SDS011;43090;52.604;13.318;2024-01-06T03:26:09;82.85;;;31.25;;
57233;SDS011;43090;52.604;13.318;2024-01-06T03:28:51;78.78;;;29.67;;
57233;SDS011;43090;52.604;13.318;2024-01-06T03:31:21;85.38;;;31.40;;
57233;SDS011;43090;52.604;13.318;2024-01-06T03:34:02;84.32;;;31.33;;
57233;SDS011;43090;52.604;13.318;2024-01-06T03:36:29;79.28;;;29.27;;
57233;SDS011;43090;52.604;13.318;2024-01-06T03:38:55;87.95;;;30.23;;
57233;SDS011;43090;52.604;13.318;2024-01-06T03:41:22;89.65;;;32.35;;
57233;SDS011;43090;52.604;13.318;2024-01-06T03:46:15;82.38;;;28.58;;
57233;SDS011;43090;52.604;13.318;2024-01-06T03:51:19;88.40;;;29.35;;
57233;SDS011;43090;52.604;13.318;2024-01-06T03:53:50;78.85;;;29.40;;
57233;SDS011;43090;52.604;13.318;2024-01-06T03:56:17;84.63;;;30.00;;
57233;SDS011;43090;52.604;13.318;2024-01-06T03:58:44;81.03;;;29.27;;
57233;SDS011;43090;52.604;13.318;2024-01-06T04:03:40;84.15;;;30.35;;
57233;SDS011;43090;52.604;13.318;2024-01-06T04:06:07;76.53;;;28.88;;
57233;SDS011;43090;52.604;13.318;2024-01-06T04:11:42;88.15;;;30.35;;
57233;SDS011;43090;52.604;13.318;2024-01-06T04:17:23;83.32;;;28.70;;
57233;SDS011;43090;52.604;13.318;2024-01-06T04:20:14;74.68;;;29.08;;
57233;SDS011;43090;52.604;13.318;2024-01-06T04:23:01;84.13;;;29.23;;
57233;SDS011;43090;52.604;13.318;2024-01-06T04:29:48;89.28;;;29.15;;
57233;SDS011;43090;52.604;13.318;2024-01-06T04:32:19;85.35;;;28.83;;
57233;SDS011;43090;52.604;13.318;2024-01-06T04:37:18;85.10;;;29.17;;
57233;SDS011;43090;52.604;13.318;2024-01-06T04:39:45;84.68;;;32.05;;
57233;SDS011;43090;52.604;13.318;2024-01-06T04:44:39;87.27;;;31.20;;
57233;SDS011;43090;52.604;13.318;2024-01-06T04:49:32;80.67;;;29.60;;
57233;SDS011;43090;52.604;13.318;2024-01-06T04:51:59;88.53;;;31.20;;
57233;SDS011;43090;52.604;13.318;2024-01-06T04:56:52;94.53;;;33.22;;
57233;SDS011;43090;52.604;13.318;2024-01-06T05:01:45;90.63;;;31.80;;
57233;SDS011;43090;52.604;13.318;2024-01-06T05:04:12;90.82;;;30.55;;
57233;SDS011;43090;52.604;13.318;2024-01-06T05:09:06;82.15;;;29.67;;
57233;SDS011;43090;52.604;13.318;2024-01-06T05:11:33;89.40;;;31.13;;
57233;SDS011;43090;52.604;13.318;2024-01-06T05:13:59;102.78;;;33.80;;
57233;SDS011;43090;52.604;13.318;2024-01-06T05:16:40;88.20;;;32.00;;
57233;SDS011;43090;52.604;13.318;2024-01-06T05:19:08;87.80;;;32.13;;
57233;SDS011;43090;52.604;13.318;2024-01-06T05:21:36;97.95;;;35.05;;
57233;SDS011;43090;52.604;13.318;2024-01-06T05:24:05;101.57;;;34.13;;
57233;SDS011;43090;52.604;13.318;2024-01-06T05:26:32;98.00;;;30.45;;
57233;SDS011;43090;52.604;13.318;2024-01-06T05:28:59;85.90;;;29.73;;
57233;SDS011;43090;52.604;13.318;2024-01-06T05:31:26;107.75;;;34.22;;
57233;SDS011;43090;52.604;13.318;2024-01-06T05:33:59;82.45;;;30.23;;
57233;SDS011;43090;52.604;13.318;2024-01-06T05:37:18;84.85;;;30.00;;
57233;SDS011;43090;52.604;13.318;2024-01-06T05:42:48;91.10;;;32.00;;
57233;SDS011;43090;52.604;13.318;2024-01-06T05:45:15;89.95;;;30.77;;
57233;SDS011;43090;52.604;13.318;2024-01-06T05:47:42;90.15;;;29.73;;
57233;SDS011;43090;52.604;13.318;2024-01-06T05:50:08;91.85;;;32.55;;
57233;SDS011;43090;52.604;13.318;2024-01-06T05:52:36;94.05;;;32.22;;
57233;SDS011;43090;52.604;13.318;2024-01-06T05:57:30;92.05;;;30.23;;
57233;SDS011;43090;52.604;13.318;2024-01-06T06:00:01;87.40;;;31.33;;
57233;SDS011;43090;52.604;13.318;2024-01-06T06:02:28;96.53;;;31.58;;
57233;SDS011;43090;52.604;13.318;2024-01-06T06:05:03;97.80;;;31.83;;
57233;SDS011;43090;52.604;13.318;2024-01-06T06:07:30;90.07;;;32.38;;
57233;SDS011;43090;52.604;13.318;2024-01-06T06:09:57;96.00;;;31.00;;
57233;SDS011;43090;52.604;13.318;2024-01-06T06:12:24;95.05;;;32.70;;
57233;SDS011;43090;52.604;13.318;2024-01-06T06:14:51;93.05;;;31.80;;
57233;SDS011;43090;52.604;13.318;2024-01-06T06:17:18;85.20;;;29.23;;
57233;SDS011;43090;52.604;13.318;2024-01-06T06:22:56;106.10;;;31.90;;
57233;SDS011;43090;52.604;13.318;2024-01-06T06:25:44;93.43;;;30.77;;
57233;SDS011;43090;52.604;13.318;2024-01-06T06:28:37;88.40;;;30.85;;
57233;SDS011;43090;52.604;13.318;2024-01-06T06:34:13;101.45;;;30.33;;
57233;SDS011;43090;52.604;13.318;2024-01-06T06:39:51;85.95;;;28.90;;
57233;SDS011;43090;52.604;13.318;2024-01-06T06:42:22;101.32;;;30.15;;
57233;SDS011;43090;52.604;13.318;2024-01-06T06:48:57;93.00;;;30.45;;
57233;SDS011;43090;52.604;13.318;2024-01-06T06:51:28;94.32;;;32.80;;
57233;SDS011;43090;52.604;13.318;2024-01-06T06:54:10;84.60;;;30.17;;
57233;SDS011;43090;52.604;13.318;2024-01-06T06:56:37;86.68;;;29.85;;
57233;SDS011;43090;52.604;13.318;2024-01-06T07:17:44;104.05;;;31.83;;
57233;SDS011;43090;52.604;13.318;2024-01-06T07:20:54;95.13;;;31.35;;
57233;SDS011;43090;52.604;13.318;2024-01-06T07:34:40;101.43;;;32.65;;
57233;SDS011;43090;52.604;13.318;2024-01-06T07:37:29;99.45;;;30.70;;
57233;SDS011;43090;52.604;13.318;2024-01-06T07:40:20;91.07;;;30.20;;
57233;SDS011;43090;52.604;13.318;2024-01-06T07:43:00;86.28;;;30.58;;
57233;SDS011;43090;52.604;13.318;2024-01-06T08:33:55;99.05;;;30.23;;
57233;SDS011;43090;52.604;13.318;2024-01-06T08:36:35;102.00;;;30.92;;
57233;SDS011;43090;52.604;13.318;2024-01-06T08:39:16;106.80;;;32.50;;
57233;SDS011;43090;52.604;13.318;2024-01-06T08:42:38;86.30;;;28.20;;
57233;SDS011;43090;52.604;13.318;2024-01-06T08:50:01;103.78;;;31.48;;
57233;SDS011;43090;52.604;13.318;2024-01-06T08:52:34;101.97;;;31.67;;
57233;SDS011;43090;52.604;13.318;2024-01-06T08:55:10;102.20;;;32.25;;
57233;SDS011;43090;52.604;13.318;2024-01-06T08:58:06;97.47;;;31.90;;
57233;SDS011;43090;52.604;13.318;2024-01-06T09:00:47;102.65;;;31.25;;
57233;SDS011;43090;52.604;13.318;2024-01-06T09:03:22;97.97;;;30.65;;
57233;SDS011;43090;52.604;13.318;2024-01-06T09:13:47;83.82;;;29.95;;
57233;SDS011;43090;52.604;13.318;2024-01-06T09:16:21;99.88;;;30.58;;
57233;SDS011;43090;52.604;13.318;2024-01-06T09:33:27;86.93;;;31.02;;
57233;SDS011;43090;52.604;13.318;2024-01-06T09:36:01;87.53;;;31.05;;
57233;SDS011;43090;52.604;13.318;2024-01-06T09:41:19;83.50;;;28.95;;
57233;SDS011;43090;52.604;13.318;2024-01-06T09:44:23;78.70;;;28.38;;
57233;SDS011;43090;52.604;13.318;2024-01-06T09:46:51;101.38;;;30.30;;
57233;SDS011;43090;52.604;13.318;2024-01-06T09:49:35;77.57;;;27.35;;
57233;SDS011;43090;52.604;13.318;2024-01-06T09:52:33;85.20;;;30.27;;
57233;SDS011;43090;52.604;13.318;2024-01-06T09:59:53;78.00;;;29.08;;
57233;SDS011;43090;52.604;13.318;2024-01-06T10:02:33;75.72;;;27.83;;
57233;SDS011;43090;52.604;13.318;2024-01-06T10:05:15;76.35;;;28.92;;
57233;SDS011;43090;52.604;13.318;2024-01-06T10:07:45;76.15;;;29.92;;
57233;SDS011;43090;52.604;13.318;2024-01-06T10:10:15;75.90;;;28.23;;
57233;SDS011;43090;52.604;13.318;2024-01-06T10:12:46;80.57;;;30.35;;
57233;SDS011;43090;52.604;13.318;2024-01-06T10:15:14;87.75;;;29.50;;
57233;SDS011;43090;52.604;13.318;2024-01-06T10:17:47;85.30;;;29.90;;
57233;SDS011;43090;52.604;13.318;2024-01-06T10:20:16;71.88;;;27.48;;
57233;SDS011;43090;52.604;13.318;2024-01-06T10:25:58;80.50;;;26.42;;
57233;SDS011;43090;52.604;13.318;2024-01-06T10:28:59;83.28;;;25.92;;
57233;SDS011;43090;52.604;13.318;2024-01-06T10:31:30;75.40;;;29.10;;
57233;SDS011;43090;52.604;13.318;2024-01-06T10:34:30;77.47;;;28.98;;
57233;SDS011;43090;52.604;13.318;2024-01-06T10:37:54;69.43;;;27.45;;
57233;SDS011;43090;52.604;13.318;2024-01-06T10:43:07;74.10;;;27.10;;
57233;SDS011;43090;52.604;13.318;2024-01-06T10:45:53;86.38;;;29.73;;
57233;SDS011;43090;52.604;13.318;2024-01-06T10:48:25;77.97;;;27.42;;
57233;SDS011;43090;52.604;13.318;2024-01-06T10:50:53;70.97;;;26.40;;
57233;SDS011;43090;52.604;13.318;2024-01-06T10:53:21;76.30;;;30.85;;
57233;SDS011;43090;52.604;13.318;2024-01-06T10:55:51;71.95;;;28.40;;
57233;SDS011;43090;52.604;13.318;2024-01-06T10:58:24;72.78;;;27.27;;
57233;SDS011;43090;52.604;13.318;2024-01-06T11:04:11;71.22;;;28.63;;
57233;SDS011;43090;52.604;13.318;2024-01-06T11:06:40;84.07;;;28.42;;
57233;SDS011;43090;52.604;13.318;2024-01-06T11:09:13;66.75;;;27.17;;
57233;SDS011;43090;52.604;13.318;2024-01-06T11:11:46;76.15;;;28.73;;
57233;SDS011;43090;52.604;13.318;2024-01-06T11:14:18;71.47;;;26.50;;
57233;SDS011;43090;52.604;13.318;2024-01-06T11:16:51;79.53;;;30.23;;
57233;SDS011;43090;52.604;13.318;2024-01-06T11:23:20;75.53;;;27.95;;
57233;SDS011;43090;52.604;13.318;2024-01-06T11:26:05;79.50;;;26.83;;
57233;SDS011;43090;52.604;13.318;2024-01-06T11:28:49;68.63;;;26.08;;
57233;SDS011;43090;52.604;13.318;2024-01-06T11:31:22;64.88;;;26.05;;
57233;SDS011;43090;52.604;13.318;2024-01-06T11:33:49;71.32;;;27.25;;
57233;SDS011;43090;52.604;13.318;2024-01-06T11:36:18;68.25;;;26.77;;
57233;SDS011;43090;52.604;13.318;2024-01-06T11:38:46;61.95;;;27.00;;
57233;SDS011;43090;52.604;13.318;2024-01-06T11:44:18;63.92;;;27.75;;
57233;SDS011;43090;52.604;13.318;2024-01-06T11:46:47;66.65;;;26.88;;
57233;SDS011;43090;52.604;13.318;2024-01-06T11:49:19;69.40;;;27.50;;
57233;SDS011;43090;52.604;13.318;2024-01-06T11:51:48;59.22;;;24.80;;
57233;SDS011;43090;52.604;13.318;2024-01-06T11:54:21;62.38;;;25.00;;
57233;SDS011;43090;52.604;13.318;2024-01-06T12:00:07;57.85;;;24.15;;
57233;SDS011;43090;52.604;13.318;2024-01-06T12:06:19;64.93;;;25.48;;
57233;SDS011;43090;52.604;13.318;2024-01-06T12:08:48;59.13;;;25.75;;
57233;SDS011;43090;52.604;13.318;2024-01-06T12:11:33;55.47;;;23.08;;
57233;SDS011;43090;52.604;13.318;2024-01-06T12:14:18;62.58;;;26.48;;
57233;SDS011;43090;52.604;13.318;2024-01-06T12:17:03;60.90;;;23.52;;
57233;SDS011;43090;52.604;13.318;2024-01-06T12:29:03;62.95;;;24.27;;
57233;SDS011;43090;52.604;13.318;2024-01-06T12:31:40;67.10;;;25.33;;
57233;SDS011;43090;52.604;13.318;2024-01-06T12:39:00;61.25;;;24.70;;
57233;SDS011;43090;52.604;13.318;2024-01-06T12:41:54;59.67;;;22.73;;
57233;SDS011;43090;52.604;13.318;2024-01-06T12:44:30;60.78;;;24.05;;
57233;SDS011;43090;52.604;13.318;2024-01-06T12:55:28;53.72;;;22.35;;
57233;SDS011;43090;52.604;13.318;2024-01-06T13:03:00;52.33;;;20.08;;
57233;SDS011;43090;52.604;13.318;2024-01-06T13:06:04;54.67;;;21.90;;
57233;SDS011;43090;52.604;13.318;2024-01-06T13:09:14;61.10;;;22.17;;
57233;SDS011;43090;52.604;13.318;2024-01-06T13:15:45;55.20;;;21.92;;
57233;SDS011;43090;52.604;13.318;2024-01-06T13:18:48;62.72;;;21.92;;
57233;SDS011;43090;52.604;13.318;2024-01-06T13:40:08;45.90;;;18.92;;
57233;SDS011;43090;52.604;13.318;2024-01-06T13:43:49;52.60;;;20.77;;
57233;SDS011;43090;52.604;13.318;2024-01-06T13:50:57;43.80;;;18.58;;
57233;SDS011;43090;52.604;13.318;2024-01-06T13:53:24;50.42;;;19.33;;
57233;SDS011;43090;52.604;13.318;2024-01-06T13:55:54;47.78;;;18.05;;
57233;SDS011;43090;52.604;13.318;2024-01-06T13:58:23;47.38;;;19.33;;
57233;SDS011;43090;52.604;13.318;2024-01-06T14:00:50;44.67;;;19.23;;
57233;SDS011;43090;52.604;13.318;2024-01-06T14:03:41;52.08;;;19.73;;
57233;SDS011;43090;52.604;13.318;2024-01-06T14:09:46;43.90;;;16.85;;
57233;SDS011;43090;52.604;13.318;2024-01-06T14:12:31;47.03;;;18.50;;
57233;SDS011;43090;52.604;13.318;2024-01-06T14:15:01;46.40;;;20.02;;
57233;SDS011;43090;52.604;13.318;2024-01-06T14:17:35;47.35;;;17.92;;
57233;SDS011;43090;52.604;13.318;2024-01-06T14:20:02;45.95;;;17.98;;
57233;SDS011;43090;52.604;13.318;2024-01-06T14:22:37;44.53;;;17.80;;
57233;SDS011;43090;52.604;13.318;2024-01-06T14:25:05;45.03;;;17.77;;
57233;SDS011;43090;52.604;13.318;2024-01-06T14:30:50;41.25;;;17.00;;
57233;SDS011;43090;52.604;13.318;2024-01-06T14:33:22;40.97;;;16.60;;
57233;SDS011;43090;52.604;13.318;2024-01-06T14:35:52;38.70;;;17.15;;
57233;SDS011;43090;52.604;13.318;2024-01-06T14:38:19;42.15;;;17.20;;
57233;SDS011;43090;52.604;13.318;2024-01-06T14:40:49;46.80;;;17.85;;
57233;SDS011;43090;52.604;13.318;2024-01-06T14:46:12;35.67;;;15.77;;
57233;SDS011;43090;52.604;13.318;2024-01-06T14:48:38;40.90;;;17.77;;
57233;SDS011;43090;52.604;13.318;2024-01-06T14:51:08;40.55;;;15.32;;
57233;SDS011;43090;52.604;13.318;2024-01-06T14:56:01;33.42;;;13.70;;
57233;SDS011;43090;52.604;13.318;2024-01-06T14:58:30;32.60;;;14.15;;
57233;SDS011;43090;52.604;13.318;2024-01-06T15:00:56;34.72;;;15.88;;
57233;SDS011;43090;52.604;13.318;2024-01-06T15:03:23;31.08;;;13.25;;
57233;SDS011;43090;52.604;13.318;2024-01-06T15:05:50;35.42;;;14.32;;
57233;SDS011;43090;52.604;13.318;2024-01-06T15:08:17;29.23;;;12.57;;
57233;SDS011;43090;52.604;13.318;2024-01-06T15:10:44;35.05;;;13.27;;
57233;SDS011;43090;52.604;13.318;2024-01-06T15:13:11;28.15;;;13.07;;
57233;SDS011;43090;52.604;13.318;2024-01-06T15:15:38;22.00;;;10.70;;
57233;SDS011;43090;52.604;13.318;2024-01-06T15:18:10;26.42;;;11.18;;
57233;SDS011;43090;52.604;13.318;2024-01-06T15:20:40;31.48;;;10.77;;
57233;SDS011;43090;52.604;13.318;2024-01-06T15:23:07;25.90;;;9.68;;
57233;SDS011;43090;52.604;13.318;2024-01-06T15:25:37;23.65;;;10.70;;
57233;SDS011;43090;52.604;13.318;2024-01-06T15:28:04;28.98;;;10.07;;
57233;SDS011;43090;52.604;13.318;2024-01-06T15:30:33;20.33;;;8.95;;
57233;SDS011;43090;52.604;13.318;2024-01-06T15:33:48;22.75;;;9.30;;
57233;SDS011;43090;52.604;13.318;2024-01-06T15:36:15;20.27;;;9.00;;
57233;SDS011;43090;52.604;13.318;2024-01-06T15:38:42;22.75;;;9.05;;
57233;SDS011;43090;52.604;13.318;2024-01-06T15:41:08;28.75;;;10.35;;
57233;SDS011;43090;52.604;13.318;2024-01-06T15:43:35;26.55;;;8.73;;
57233;SDS011;43090;52.604;13.318;2024-01-06T15:46:04;24.02;;;9.07;;
57233;SDS011;43090;52.604;13.318;2024-01-06T15:48:30;26.02;;;9.68;;
57233;SDS011;43090;52.604;13.318;2024-01-06T15:50:58;26.40;;;11.13;;
57233;SDS011;43090;52.604;13.318;2024-01-06T15:53:26;22.88;;;11.02;;
57233;SDS011;43090;52.604;13.318;2024-01-06T15:55:52;23.13;;;8.95;;
57233;SDS011;43090;52.604;13.318;2024-01-06T16:00:45;23.05;;;8.35;;
57233;SDS011;43090;52.604;13.318;2024-01-06T16:03:12;25.75;;;9.32;;
57233;SDS011;43090;52.604;13.318;2024-01-06T16:05:39;25.73;;;8.80;;
57233;SDS011;43090;52.604;13.318;2024-01-06T16:08:08;20.17;;;8.13;;
57233;SDS011;43090;52.604;13.318;2024-01-06T16:13:57;22.83;;;8.65;;
57233;SDS011;43090;52.604;13.318;2024-01-06T16:16:29;20.58;;;7.47;;
57233;SDS011;43090;52.604;13.318;2024-01-06T16:19:13;19.00;;;8.73;;
57233;SDS011;43090;52.604;13.318;2024-01-06T16:21:39;21.42;;;8.63;;
57233;SDS011;43090;52.604;13.318;2024-01-06T16:24:06;18.65;;;7.80;;
57233;SDS011;43090;52.604;13.318;2024-01-06T16:26:33;20.77;;;7.90;;
57233;SDS011;43090;52.604;13.318;2024-01-06T16:29:00;18.60;;;7.63;;
57233;SDS011;43090;52.604;13.318;2024-01-06T16:31:40;18.08;;;7.80;;
57233;SDS011;43090;52.604;13.318;2024-01-06T16:37:22;19.42;;;8.25;;
57233;SDS011;43090;52.604;13.318;2024-01-06T16:42:17;21.67;;;7.00;;
57233;SDS011;43090;52.604;13.318;2024-01-06T16:44:44;17.85;;;7.35;;
57233;SDS011;43090;52.604;13.318;2024-01-06T16:49:37;18.27;;;7.10;;
57233;SDS011;43090;52.604;13.318;2024-01-06T16:52:03;20.02;;;7.13;;
57233;SDS011;43090;52.604;13.318;2024-01-06T16:54:30;17.27;;;7.00;;
57233;SDS011;43090;52.604;13.318;2024-01-06T16:56:57;23.33;;;7.93;;
57233;SDS011;43090;52.604;13.318;2024-01-06T16:59:26;16.30;;;7.88;;
57233;SDS011;43090;52.604;13.318;2024-01-06T17:01:54;21.38;;;7.90;;
57233;SDS011;43090;52.604;13.318;2024-01-06T17:04:20;20.52;;;8.27;;
57233;SDS011;43090;52.604;13.318;2024-01-06T17:07:01;19.92;;;7.75;;
57233;SDS011;43090;52.604;13.318;2024-01-06T17:09:30;20.77;;;7.95;;
57233;SDS011;43090;52.604;13.318;2024-01-06T17:11:57;18.58;;;8.10;;
57233;SDS011;43090;52.604;13.318;2024-01-06T17:18:28;17.50;;;7.82;;
57233;SDS011;43090;52.604;13.318;2024-01-06T17:20:55;16.52;;;8.18;;
57233;SDS011;43090;52.604;13.318;2024-01-06T17:23:21;23.90;;;9.77;;
57233;SDS011;43090;52.604;13.318;2024-01-06T17:25:48;25.63;;;8.38;;
57233;SDS011;43090;52.604;13.318;2024-01-06T17:28:15;26.23;;;9.30;;
57233;SDS011;43090;52.604;13.318;2024-01-06T17:30:42;18.27;;;8.50;;
57233;SDS011;43090;52.604;13.318;2024-01-06T17:33:15;24.38;;;9.85;;
57233;SDS011;43090;52.604;13.318;2024-01-06T17:35:42;21.00;;;8.43;;
57233;SDS011;43090;52.604;13.318;2024-01-06T17:38:16;26.20;;;8.50;;
57233;SDS011;43090;52.604;13.318;2024-01-06T17:40:42;24.38;;;8.52;;
57233;SDS011;43090;52.604;13.318;2024-01-06T17:50:34;20.30;;;8.77;;
57233;SDS011;43090;52.604;13.318;2024-01-06T17:53:09;19.23;;;7.82;;
57233;SDS011;43090;52.604;13.318;2024-01-06T17:55:37;21.40;;;8.35;;
57233;SDS011;43090;52.604;13.318;2024-01-06T17:59:14;24.13;;;8.75;;
57233;SDS011;43090;52.604;13.318;2024-01-06T18:02:57;22.00;;;7.90;;
57233;SDS011;43090;52.604;13.318;2024-01-06T18:05:26;20.02;;;8.68;;
57233;SDS011;43090;52.604;13.318;2024-01-06T18:07:54;16.48;;;7.85;;
57233;SDS011;43090;52.604;13.318;2024-01-06T18:10:23;24.77;;;8.13;;
57233;SDS011;43090;52.604;13.318;2024-01-06T18:17:28;22.85;;;10.00;;
57233;SDS011;43090;52.604;13.318;2024-01-06T18:20:19;26.10;;;9.60;;
57233;SDS011;43090;52.604;13.318;2024-01-06T18:22:54;26.92;;;10.00;;
57233;SDS011;43090;52.604;13.318;2024-01-06T18:25:55;24.75;;;9.50;;
57233;SDS011;43090;52.604;13.318;2024-01-06T18:28:29;16.73;;;8.77;;
57233;SDS011;43090;52.604;13.318;2024-01-06T18:31:35;21.85;;;8.52;;
57233;SDS011;43090;52.604;13.318;2024-01-06T18:36:50;21.63;;;8.50;;
57233;SDS011;43090;52.604;13.318;2024-01-06T18:47:11;17.58;;;7.53;;
57233;SDS011;43090;52.604;13.318;2024-01-06T18:53:15;16.80;;;6.85;;
57233;SDS011;43090;52.604;13.318;2024-01-06T18:56:17;20.17;;;8.40;;
57233;SDS011;43090;52.604;13.318;2024-01-06T19:02:27;17.25;;;7.68;;
57233;SDS011;43090;52.604;13.318;2024-01-06T19:05:26;18.10;;;8.27;;
57233;SDS011;43090;52.604;13.318;2024-01-06T19:08:06;17.67;;;7.18;;
57233;SDS011;43090;52.604;13.318;2024-01-06T19:14:10;17.85;;;7.78;;
57233;SDS011;43090;52.604;13.318;2024-01-06T21:35:26;9.00;;;3.88;;
57233;SDS011;43090;52.604;13.318;2024-01-06T23:38:11;13.75;;;4.32;;
57233;SDS011;43090;52.604;13.318;2024-01-06T23:48:27;12.55;;;4.85;;
57233;SDS011;43090;52.604;13.318;2024-01-06T23:51:07;10.27;;;3.95;;
57233;SDS011;43090;52.604;13.318;2024-01-06T23:53:39;8.57;;;2.67;;
